sensor_id;sensor_type;location;lat;lon;timestamp;P1;durP1;ratioP1;P2;durP2;ratioP2
66402;SDS011;53212;52.112;5.144;2023-02-24T00:01:23;13.80;;;3.50;;
66402;SDS011;53212;52.112;5.144;2023-02-24T00:03:58;10.70;;;3.40;;
66402;SDS011;53212;52.112;5.144;2023-02-24T00:06:26;10.20;;;3.30;;
66402;SDS011;53212;52.112;5.144;2023-02-24T00:13:58;6.70;;;3.00;;
66402;SDS011;53212;52.112;5.144;2023-02-24T00:16:24;10.30;;;3.10;;
66402;SDS011;53212;52.112;5.144;2023-02-24T00:18:51;11.70;;;3.10;;
66402;SDS011;53212;52.112;5.144;2023-02-24T00:21:18;10.30;;;2.70;;
66402;SDS011;53212;52.112;5.144;2023-02-24T00:23:46;10.80;;;3.40;;
66402;SDS011;53212;52.112;5.144;2023-02-24T00:26:13;7.50;;;3.20;;
66402;SDS011;53212;52.112;5.144;2023-02-24T00:28:40;14.00;;;3.10;;
66402;SDS011;53212;52.112;5.144;2023-02-24T00:31:08;7.30;;;2.50;;
66402;SDS011;53212;52.112;5.144;2023-02-24T00:33:38;10.40;;;2.80;;
66402;SDS011;53212;52.112;5.144;2023-02-24T00:36:15;7.70;;;2.90;;
66402;SDS011;53212;52.112;5.144;2023-02-24T00:38:53;10.00;;;3.10;;
66402;SDS011;53212;52.112;5.144;2023-02-24T00:41:22;7.50;;;3.60;;
66402;SDS011;53212;52.112;5.144;2023-02-24T00:43:54;10.00;;;3.50;;
66402;SDS011;53212;52.112;5.144;2023-02-24T00:46:24;12.50;;;3.60;;
66402;SDS011;53212;52.112;5.144;2023-02-24T00:48:52;12.50;;;3.50;;
66402;SDS011;53212;52.112;5.144;2023-02-24T00:51:21;11.00;;;3.00;;
66402;SDS011;53212;52.112;5.144;2023-02-24T00:53:52;11.30;;;3.10;;
66402;SDS011;53212;52.112;5.144;2023-02-24T00:56:24;8.90;;;3.40;;
66402;SDS011;53212;52.112;5.144;2023-02-24T00:58:52;10.70;;;3.00;;
66402;SDS011;53212;52.112;5.144;2023-02-24T01:01:21;8.20;;;2.50;;
66402;SDS011;53212;52.112;5.144;2023-02-24T01:03:49;10.00;;;3.50;;
66402;SDS011;53212;52.112;5.144;2023-02-24T01:06:19;14.50;;;4.00;;
66402;SDS011;53212;52.112;5.144;2023-02-24T01:08:47;11.10;;;3.70;;
66402;SDS011;53212;52.112;5.144;2023-02-24T01:11:22;10.10;;;3.70;;
66402;SDS011;53212;52.112;5.144;2023-02-24T01:14:16;13.40;;;3.00;;
66402;SDS011;53212;52.112;5.144;2023-02-24T01:16:43;8.50;;;2.80;;
66402;SDS011;53212;52.112;5.144;2023-02-24T01:19:18;14.20;;;2.90;;
66402;SDS011;53212;52.112;5.144;2023-02-24T01:21:45;10.60;;;3.30;;
66402;SDS011;53212;52.112;5.144;2023-02-24T01:24:14;10.20;;;3.10;;
66402;SDS011;53212;52.112;5.144;2023-02-24T01:26:40;8.30;;;2.70;;
66402;SDS011;53212;52.112;5.144;2023-02-24T01:29:06;9.70;;;2.90;;
66402;SDS011;53212;52.112;5.144;2023-02-24T01:31:36;8.60;;;2.80;;
66402;SDS011;53212;52.112;5.144;2023-02-24T01:34:03;9.30;;;3.00;;
66402;SDS011;53212;52.112;5.144;2023-02-24T01:36:30;9.10;;;2.90;;
66402;SDS011;53212;52.112;5.144;2023-02-24T01:38:58;7.10;;;2.70;;
66402;SDS011;53212;52.112;5.144;2023-02-24T01:41:25;10.00;;;2.90;;
66402;SDS011;53212;52.112;5.144;2023-02-24T01:46:36;10.40;;;2.90;;
66402;SDS011;53212;52.112;5.144;2023-02-24T01:49:27;14.00;;;3.30;;
66402;SDS011;53212;52.112;5.144;2023-02-24T01:52:21;9.40;;;3.40;;
66402;SDS011;53212;52.112;5.144;2023-02-24T01:57:28;11.10;;;2.90;;
66402;SDS011;53212;52.112;5.144;2023-02-24T01:59:56;11.40;;;3.10;;
66402;SDS011;53212;52.112;5.144;2023-02-24T02:02:35;13.70;;;3.40;;
66402;SDS011;53212;52.112;5.144;2023-02-24T02:05:07;10.60;;;3.00;;
66402;SDS011;53212;52.112;5.144;2023-02-24T02:07:34;9.30;;;2.80;;
66402;SDS011;53212;52.112;5.144;2023-02-24T02:10:03;10.20;;;3.20;;
66402;SDS011;53212;52.112;5.144;2023-02-24T02:12:32;10.10;;;3.10;;
66402;SDS011;53212;52.112;5.144;2023-02-24T02:15:01;11.30;;;2.60;;
66402;SDS011;53212;52.112;5.144;2023-02-24T02:23:52;9.30;;;2.90;;
66402;SDS011;53212;52.112;5.144;2023-02-24T02:35:14;9.80;;;2.80;;
66402;SDS011;53212;52.112;5.144;2023-02-24T02:37:53;8.00;;;2.60;;
66402;SDS011;53212;52.112;5.144;2023-02-24T02:43:33;14.90;;;3.20;;
66402;SDS011;53212;52.112;5.144;2023-02-24T02:46:27;10.70;;;2.70;;
66402;SDS011;53212;52.112;5.144;2023-02-24T02:52:08;9.70;;;3.10;;
66402;SDS011;53212;52.112;5.144;2023-02-24T02:57:49;11.90;;;2.80;;
66402;SDS011;53212;52.112;5.144;2023-02-24T03:00:25;8.50;;;2.50;;
66402;SDS011;53212;52.112;5.144;2023-02-24T03:02:56;11.10;;;3.00;;
66402;SDS011;53212;52.112;5.144;2023-02-24T03:05:35;12.90;;;3.30;;
66402;SDS011;53212;52.112;5.144;2023-02-24T03:08:11;6.10;;;2.40;;
66402;SDS011;53212;52.112;5.144;2023-02-24T03:10:42;9.70;;;2.90;;
66402;SDS011;53212;52.112;5.144;2023-02-24T03:13:14;9.00;;;2.90;;
66402;SDS011;53212;52.112;5.144;2023-02-24T03:18:18;8.70;;;3.00;;
66402;SDS011;53212;52.112;5.144;2023-02-24T03:20:55;9.70;;;2.60;;
66402;SDS011;53212;52.112;5.144;2023-02-24T03:23:25;12.00;;;3.40;;
66402;SDS011;53212;52.112;5.144;2023-02-24T03:26:18;13.20;;;3.20;;
66402;SDS011;53212;52.112;5.144;2023-02-24T03:28:57;12.70;;;2.80;;
66402;SDS011;53212;52.112;5.144;2023-02-24T03:34:29;10.00;;;2.70;;
66402;SDS011;53212;52.112;5.144;2023-02-24T03:37:03;9.90;;;3.10;;
66402;SDS011;53212;52.112;5.144;2023-02-24T03:39:29;10.00;;;2.60;;
66402;SDS011;53212;52.112;5.144;2023-02-24T03:44:35;8.30;;;2.80;;
66402;SDS011;53212;52.112;5.144;2023-02-24T03:47:01;8.20;;;2.50;;
66402;SDS011;53212;52.112;5.144;2023-02-24T03:49:27;7.20;;;2.60;;
66402;SDS011;53212;52.112;5.144;2023-02-24T03:52:03;9.80;;;2.60;;
66402;SDS011;53212;52.112;5.144;2023-02-24T04:04:02;6.50;;;2.50;;
66402;SDS011;53212;52.112;5.144;2023-02-24T04:17:28;9.70;;;2.50;;
66402;SDS011;53212;52.112;5.144;2023-02-24T04:20:03;9.40;;;2.10;;
66402;SDS011;53212;52.112;5.144;2023-02-24T04:22:38;7.60;;;2.10;;
66402;SDS011;53212;52.112;5.144;2023-02-24T04:25:05;8.60;;;2.30;;
66402;SDS011;53212;52.112;5.144;2023-02-24T04:27:40;8.00;;;2.10;;
66402;SDS011;53212;52.112;5.144;2023-02-24T04:30:09;10.10;;;2.50;;
66402;SDS011;53212;52.112;5.144;2023-02-24T04:32:36;7.80;;;2.40;;
66402;SDS011;53212;52.112;5.144;2023-02-24T04:35:04;6.20;;;2.20;;
66402;SDS011;53212;52.112;5.144;2023-02-24T04:37:32;9.20;;;2.50;;
66402;SDS011;53212;52.112;5.144;2023-02-24T04:40:03;9.10;;;2.30;;
66402;SDS011;53212;52.112;5.144;2023-02-24T04:42:35;8.90;;;2.50;;
66402;SDS011;53212;52.112;5.144;2023-02-24T04:45:18;9.80;;;2.90;;
66402;SDS011;53212;52.112;5.144;2023-02-24T04:47:45;9.90;;;2.20;;
66402;SDS011;53212;52.112;5.144;2023-02-24T04:50:18;5.40;;;1.90;;
66402;SDS011;53212;52.112;5.144;2023-02-24T04:53:10;9.10;;;2.20;;
66402;SDS011;53212;52.112;5.144;2023-02-24T04:55:40;6.40;;;2.00;;
66402;SDS011;53212;52.112;5.144;2023-02-24T04:58:12;6.10;;;1.90;;
66402;SDS011;53212;52.112;5.144;2023-02-24T05:00:44;6.10;;;2.10;;
66402;SDS011;53212;52.112;5.144;2023-02-24T05:03:12;6.10;;;1.90;;
66402;SDS011;53212;52.112;5.144;2023-02-24T05:05:38;6.80;;;1.90;;
66402;SDS011;53212;52.112;5.144;2023-02-24T05:08:08;7.80;;;2.30;;
66402;SDS011;53212;52.112;5.144;2023-02-24T05:10:40;5.90;;;2.10;;
66402;SDS011;53212;52.112;5.144;2023-02-24T05:13:12;5.80;;;2.20;;
66402;SDS011;53212;52.112;5.144;2023-02-24T05:15:40;9.70;;;2.30;;
66402;SDS011;53212;52.112;5.144;2023-02-24T05:18:10;7.40;;;2.50;;
66402;SDS011;53212;52.112;5.144;2023-02-24T05:20:40;4.60;;;1.90;;
66402;SDS011;53212;52.112;5.144;2023-02-24T05:23:31;4.90;;;2.10;;
66402;SDS011;53212;52.112;5.144;2023-02-24T05:26:04;6.00;;;1.90;;
66402;SDS011;53212;52.112;5.144;2023-02-24T05:28:35;10.70;;;2.10;;
66402;SDS011;53212;52.112;5.144;2023-02-24T05:31:10;5.60;;;2.20;;
66402;SDS011;53212;52.112;5.144;2023-02-24T05:33:39;9.00;;;2.00;;
66402;SDS011;53212;52.112;5.144;2023-02-24T05:36:09;7.00;;;1.90;;
66402;SDS011;53212;52.112;5.144;2023-02-24T05:38:39;5.40;;;1.90;;
66402;SDS011;53212;52.112;5.144;2023-02-24T05:41:17;6.70;;;1.90;;
66402;SDS011;53212;52.112;5.144;2023-02-24T05:43:51;5.90;;;2.00;;
66402;SDS011;53212;52.112;5.144;2023-02-24T05:46:27;6.40;;;2.20;;
66402;SDS011;53212;52.112;5.144;2023-02-24T05:48:54;5.20;;;1.80;;
66402;SDS011;53212;52.112;5.144;2023-02-24T05:51:24;10.40;;;1.80;;
66402;SDS011;53212;52.112;5.144;2023-02-24T05:54:05;3.50;;;1.30;;
66402;SDS011;53212;52.112;5.144;2023-02-24T05:56:34;4.80;;;1.80;;
66402;SDS011;53212;52.112;5.144;2023-02-24T05:59:03;8.20;;;1.90;;
66402;SDS011;53212;52.112;5.144;2023-02-24T06:01:32;6.50;;;2.00;;
66402;SDS011;53212;52.112;5.144;2023-02-24T06:04:01;13.90;;;2.30;;
66402;SDS011;53212;52.112;5.144;2023-02-24T06:06:38;9.60;;;2.30;;
66402;SDS011;53212;52.112;5.144;2023-02-24T06:09:10;5.90;;;1.90;;
66402;SDS011;53212;52.112;5.144;2023-02-24T06:11:40;7.00;;;1.80;;
66402;SDS011;53212;52.112;5.144;2023-02-24T06:14:07;9.20;;;2.00;;
66402;SDS011;53212;52.112;5.144;2023-02-24T06:16:35;5.60;;;2.10;;
66402;SDS011;53212;52.112;5.144;2023-02-24T06:19:04;8.50;;;1.90;;
66402;SDS011;53212;52.112;5.144;2023-02-24T06:21:30;5.80;;;2.00;;
66402;SDS011;53212;52.112;5.144;2023-02-24T06:23:57;7.30;;;1.90;;
66402;SDS011;53212;52.112;5.144;2023-02-24T06:26:24;7.10;;;2.20;;
66402;SDS011;53212;52.112;5.144;2023-02-24T06:28:54;5.20;;;1.90;;
66402;SDS011;53212;52.112;5.144;2023-02-24T06:31:22;8.10;;;2.20;;
66402;SDS011;53212;52.112;5.144;2023-02-24T06:33:47;6.40;;;2.10;;
66402;SDS011;53212;52.112;5.144;2023-02-24T06:36:14;7.10;;;2.00;;
66402;SDS011;53212;52.112;5.144;2023-02-24T06:38:40;4.20;;;1.90;;
66402;SDS011;53212;52.112;5.144;2023-02-24T06:41:06;6.00;;;1.80;;
66402;SDS011;53212;52.112;5.144;2023-02-24T06:43:39;6.00;;;2.00;;
66402;SDS011;53212;52.112;5.144;2023-02-24T06:46:07;6.20;;;2.00;;
66402;SDS011;53212;52.112;5.144;2023-02-24T06:48:35;6.00;;;2.00;;
66402;SDS011;53212;52.112;5.144;2023-02-24T06:51:13;6.90;;;2.20;;
66402;SDS011;53212;52.112;5.144;2023-02-24T06:53:40;9.80;;;2.10;;
66402;SDS011;53212;52.112;5.144;2023-02-24T06:56:10;4.30;;;2.00;;
66402;SDS011;53212;52.112;5.144;2023-02-24T06:58:44;10.00;;;1.90;;
66402;SDS011;53212;52.112;5.144;2023-02-24T07:01:12;10.00;;;2.60;;
66402;SDS011;53212;52.112;5.144;2023-02-24T07:03:38;6.50;;;1.90;;
66402;SDS011;53212;52.112;5.144;2023-02-24T07:06:08;8.90;;;1.90;;
66402;SDS011;53212;52.112;5.144;2023-02-24T07:08:48;6.90;;;2.00;;
66402;SDS011;53212;52.112;5.144;2023-02-24T07:11:16;6.20;;;2.50;;
66402;SDS011;53212;52.112;5.144;2023-02-24T07:13:44;8.50;;;2.90;;
66402;SDS011;53212;52.112;5.144;2023-02-24T07:16:17;8.60;;;2.00;;
66402;SDS011;53212;52.112;5.144;2023-02-24T07:18:44;6.50;;;2.30;;
66402;SDS011;53212;52.112;5.144;2023-02-24T07:21:15;4.90;;;2.10;;
66402;SDS011;53212;52.112;5.144;2023-02-24T07:23:43;8.50;;;2.40;;
66402;SDS011;53212;52.112;5.144;2023-02-24T07:26:17;8.10;;;2.40;;
66402;SDS011;53212;52.112;5.144;2023-02-24T07:28:47;7.30;;;1.90;;
66402;SDS011;53212;52.112;5.144;2023-02-24T07:31:14;6.00;;;2.50;;
66402;SDS011;53212;52.112;5.144;2023-02-24T07:33:43;6.60;;;2.70;;
66402;SDS011;53212;52.112;5.144;2023-02-24T07:36:13;8.00;;;2.80;;
66402;SDS011;53212;52.112;5.144;2023-02-24T07:38:43;8.40;;;2.20;;
66402;SDS011;53212;52.112;5.144;2023-02-24T07:41:11;7.20;;;2.30;;
66402;SDS011;53212;52.112;5.144;2023-02-24T07:43:40;9.00;;;2.50;;
66402;SDS011;53212;52.112;5.144;2023-02-24T07:46:11;9.70;;;2.50;;
66402;SDS011;53212;52.112;5.144;2023-02-24T07:48:39;8.20;;;2.40;;
66402;SDS011;53212;52.112;5.144;2023-02-24T07:51:10;8.30;;;2.60;;
66402;SDS011;53212;52.112;5.144;2023-02-24T07:53:40;6.00;;;2.40;;
66402;SDS011;53212;52.112;5.144;2023-02-24T07:56:09;6.40;;;2.50;;
66402;SDS011;53212;52.112;5.144;2023-02-24T07:58:39;5.90;;;2.20;;
66402;SDS011;53212;52.112;5.144;2023-02-24T08:01:07;8.00;;;2.20;;
66402;SDS011;53212;52.112;5.144;2023-02-24T08:03:34;10.60;;;2.60;;
66402;SDS011;53212;52.112;5.144;2023-02-24T08:06:05;8.20;;;2.40;;
66402;SDS011;53212;52.112;5.144;2023-02-24T08:08:50;9.60;;;3.10;;
66402;SDS011;53212;52.112;5.144;2023-02-24T08:11:29;5.70;;;2.20;;
66402;SDS011;53212;52.112;5.144;2023-02-24T08:14:03;7.60;;;2.50;;
66402;SDS011;53212;52.112;5.144;2023-02-24T08:16:42;5.80;;;2.50;;
66402;SDS011;53212;52.112;5.144;2023-02-24T08:19:11;10.70;;;2.60;;
66402;SDS011;53212;52.112;5.144;2023-02-24T08:21:42;6.00;;;2.20;;
66402;SDS011;53212;52.112;5.144;2023-02-24T08:24:24;5.40;;;2.50;;
66402;SDS011;53212;52.112;5.144;2023-02-24T08:26:54;8.90;;;2.90;;
66402;SDS011;53212;52.112;5.144;2023-02-24T08:29:33;5.80;;;2.80;;
66402;SDS011;53212;52.112;5.144;2023-02-24T08:32:10;5.50;;;2.70;;
66402;SDS011;53212;52.112;5.144;2023-02-24T08:34:36;5.90;;;2.20;;
66402;SDS011;53212;52.112;5.144;2023-02-24T08:37:03;7.90;;;2.80;;
66402;SDS011;53212;52.112;5.144;2023-02-24T08:39:29;10.40;;;2.60;;
66402;SDS011;53212;52.112;5.144;2023-02-24T08:41:58;9.40;;;2.90;;
66402;SDS011;53212;52.112;5.144;2023-02-24T08:44:24;6.10;;;2.40;;
66402;SDS011;53212;52.112;5.144;2023-02-24T08:46:54;9.20;;;2.80;;
66402;SDS011;53212;52.112;5.144;2023-02-24T08:49:21;11.10;;;3.00;;
66402;SDS011;53212;52.112;5.144;2023-02-24T08:51:52;6.00;;;2.80;;
66402;SDS011;53212;52.112;5.144;2023-02-24T08:54:20;6.90;;;2.20;;
66402;SDS011;53212;52.112;5.144;2023-02-24T08:56:53;11.00;;;3.00;;
66402;SDS011;53212;52.112;5.144;2023-02-24T08:59:33;7.50;;;2.40;;
66402;SDS011;53212;52.112;5.144;2023-02-24T09:02:10;12.50;;;3.00;;
66402;SDS011;53212;52.112;5.144;2023-02-24T09:05:06;10.40;;;2.80;;
66402;SDS011;53212;52.112;5.144;2023-02-24T09:07:38;8.60;;;3.30;;
66402;SDS011;53212;52.112;5.144;2023-02-24T09:10:12;13.80;;;3.50;;
66402;SDS011;53212;52.112;5.144;2023-02-24T09:12:42;9.60;;;3.00;;
66402;SDS011;53212;52.112;5.144;2023-02-24T09:15:10;10.70;;;2.90;;
66402;SDS011;53212;52.112;5.144;2023-02-24T09:17:41;11.10;;;3.40;;
66402;SDS011;53212;52.112;5.144;2023-02-24T09:20:17;6.80;;;2.50;;
66402;SDS011;53212;52.112;5.144;2023-02-24T09:23:03;6.90;;;2.60;;
66402;SDS011;53212;52.112;5.144;2023-02-24T09:25:31;11.40;;;3.00;;
66402;SDS011;53212;52.112;5.144;2023-02-24T09:28:26;11.10;;;3.50;;
66402;SDS011;53212;52.112;5.144;2023-02-24T09:30:55;9.30;;;2.80;;
66402;SDS011;53212;52.112;5.144;2023-02-24T09:36:06;13.50;;;3.30;;
66402;SDS011;53212;52.112;5.144;2023-02-24T09:38:41;11.90;;;2.80;;
66402;SDS011;53212;52.112;5.144;2023-02-24T09:41:46;11.40;;;3.10;;
66402;SDS011;53212;52.112;5.144;2023-02-24T09:44:44;8.80;;;3.00;;
66402;SDS011;53212;52.112;5.144;2023-02-24T09:52:48;11.10;;;3.30;;
66402;SDS011;53212;52.112;5.144;2023-02-24T09:55:22;10.00;;;3.30;;
66402;SDS011;53212;52.112;5.144;2023-02-24T10:01:03;10.10;;;3.30;;
66402;SDS011;53212;52.112;5.144;2023-02-24T10:06:41;9.20;;;2.50;;
66402;SDS011;53212;52.112;5.144;2023-02-24T10:11:58;6.30;;;2.60;;
66402;SDS011;53212;52.112;5.144;2023-02-24T10:17:20;8.20;;;2.70;;
66402;SDS011;53212;52.112;5.144;2023-02-24T10:19:56;10.60;;;3.10;;
66402;SDS011;53212;52.112;5.144;2023-02-24T10:22:53;8.40;;;2.90;;
66402;SDS011;53212;52.112;5.144;2023-02-24T10:25:53;9.50;;;2.80;;
66402;SDS011;53212;52.112;5.144;2023-02-24T10:28:27;10.40;;;3.20;;
66402;SDS011;53212;52.112;5.144;2023-02-24T10:31:10;10.50;;;3.10;;
66402;SDS011;53212;52.112;5.144;2023-02-24T10:33:51;8.20;;;2.50;;
66402;SDS011;53212;52.112;5.144;2023-02-24T10:36:22;9.00;;;2.80;;
66402;SDS011;53212;52.112;5.144;2023-02-24T10:39:22;8.60;;;2.70;;
66402;SDS011;53212;52.112;5.144;2023-02-24T10:41:55;5.50;;;2.70;;
66402;SDS011;53212;52.112;5.144;2023-02-24T10:44:25;8.60;;;3.00;;
66402;SDS011;53212;52.112;5.144;2023-02-24T10:47:05;7.90;;;2.90;;
66402;SDS011;53212;52.112;5.144;2023-02-24T10:49:42;6.10;;;2.50;;
66402;SDS011;53212;52.112;5.144;2023-02-24T10:52:38;5.50;;;2.30;;
66402;SDS011;53212;52.112;5.144;2023-02-24T10:55:39;7.20;;;2.80;;
66402;SDS011;53212;52.112;5.144;2023-02-24T10:58:26;4.00;;;2.20;;
66402;SDS011;53212;52.112;5.144;2023-02-24T11:01:14;7.20;;;3.00;;
66402;SDS011;53212;52.112;5.144;2023-02-24T11:04:33;4.70;;;2.50;;
66402;SDS011;53212;52.112;5.144;2023-02-24T11:07:24;3.90;;;2.70;;
66402;SDS011;53212;52.112;5.144;2023-02-24T11:10:08;5.20;;;2.60;;
66402;SDS011;53212;52.112;5.144;2023-02-24T11:12:45;4.80;;;2.60;;
66402;SDS011;53212;52.112;5.144;2023-02-24T11:15:35;3.90;;;2.80;;
66402;SDS011;53212;52.112;5.144;2023-02-24T11:18:23;4.00;;;2.80;;
66402;SDS011;53212;52.112;5.144;2023-02-24T11:20:57;3.70;;;3.20;;
66402;SDS011;53212;52.112;5.144;2023-02-24T11:23:29;4.00;;;3.10;;
66402;SDS011;53212;52.112;5.144;2023-02-24T11:26:09;4.40;;;3.30;;
66402;SDS011;53212;52.112;5.144;2023-02-24T11:37:38;4.70;;;4.20;;
66402;SDS011;53212;52.112;5.144;2023-02-24T11:40:19;6.10;;;4.00;;
66402;SDS011;53212;52.112;5.144;2023-02-24T11:42:58;4.00;;;3.60;;
66402;SDS011;53212;52.112;5.144;2023-02-24T11:45:33;6.30;;;3.90;;
66402;SDS011;53212;52.112;5.144;2023-02-24T11:48:29;6.70;;;3.90;;
66402;SDS011;53212;52.112;5.144;2023-02-24T11:51:05;4.70;;;4.00;;
66402;SDS011;53212;52.112;5.144;2023-02-24T11:53:54;6.10;;;4.20;;
66402;SDS011;53212;52.112;5.144;2023-02-24T11:56:33;6.40;;;4.30;;
66402;SDS011;53212;52.112;5.144;2023-02-24T12:01:42;11.50;;;4.50;;
66402;SDS011;53212;52.112;5.144;2023-02-24T12:04:33;9.90;;;4.90;;
66402;SDS011;53212;52.112;5.144;2023-02-24T12:07:17;12.80;;;4.60;;
66402;SDS011;53212;52.112;5.144;2023-02-24T12:10:05;8.80;;;5.10;;
66402;SDS011;53212;52.112;5.144;2023-02-24T12:12:59;15.40;;;4.90;;
66402;SDS011;53212;52.112;5.144;2023-02-24T12:15:42;12.00;;;5.20;;
66402;SDS011;53212;52.112;5.144;2023-02-24T12:18:41;12.10;;;5.00;;
66402;SDS011;53212;52.112;5.144;2023-02-24T12:23:58;13.60;;;4.60;;
66402;SDS011;53212;52.112;5.144;2023-02-24T12:26:35;13.90;;;4.30;;
66402;SDS011;53212;52.112;5.144;2023-02-24T12:35:00;17.20;;;4.20;;
66402;SDS011;53212;52.112;5.144;2023-02-24T12:37:47;18.50;;;4.10;;
66402;SDS011;53212;52.112;5.144;2023-02-24T12:41:18;12.90;;;3.70;;
66402;SDS011;53212;52.112;5.144;2023-02-24T12:43:46;21.00;;;4.10;;
66402;SDS011;53212;52.112;5.144;2023-02-24T12:46:36;19.00;;;4.10;;
66402;SDS011;53212;52.112;5.144;2023-02-24T12:49:16;16.90;;;3.90;;
66402;SDS011;53212;52.112;5.144;2023-02-24T12:54:47;15.40;;;4.10;;
66402;SDS011;53212;52.112;5.144;2023-02-24T13:00:07;18.80;;;4.20;;
66402;SDS011;53212;52.112;5.144;2023-02-24T13:13:54;15.80;;;4.00;;
66402;SDS011;53212;52.112;5.144;2023-02-24T13:16:30;16.20;;;4.10;;
66402;SDS011;53212;52.112;5.144;2023-02-24T13:24:40;13.90;;;3.70;;
66402;SDS011;53212;52.112;5.144;2023-02-24T13:29:53;15.10;;;3.60;;
66402;SDS011;53212;52.112;5.144;2023-02-24T13:32:25;17.70;;;4.20;;
66402;SDS011;53212;52.112;5.144;2023-02-24T13:34:54;13.60;;;3.60;;
66402;SDS011;53212;52.112;5.144;2023-02-24T13:37:29;17.70;;;3.90;;
66402;SDS011;53212;52.112;5.144;2023-02-24T13:43:03;17.90;;;4.50;;
66402;SDS011;53212;52.112;5.144;2023-02-24T13:45:34;18.50;;;4.00;;
66402;SDS011;53212;52.112;5.144;2023-02-24T13:48:18;16.20;;;4.20;;
66402;SDS011;53212;52.112;5.144;2023-02-24T13:50:56;18.00;;;3.70;;
66402;SDS011;53212;52.112;5.144;2023-02-24T13:56:42;11.00;;;3.00;;
66402;SDS011;53212;52.112;5.144;2023-02-24T14:02:15;13.40;;;2.40;;
66402;SDS011;53212;52.112;5.144;2023-02-24T14:04:46;10.50;;;3.10;;
66402;SDS011;53212;52.112;5.144;2023-02-24T14:10:14;9.00;;;2.20;;
66402;SDS011;53212;52.112;5.144;2023-02-24T14:12:43;6.90;;;2.20;;
66402;SDS011;53212;52.112;5.144;2023-02-24T14:15:22;7.90;;;2.10;;
66402;SDS011;53212;52.112;5.144;2023-02-24T14:17:55;7.10;;;2.20;;
66402;SDS011;53212;52.112;5.144;2023-02-24T14:20:25;11.40;;;2.30;;
66402;SDS011;53212;52.112;5.144;2023-02-24T14:22:53;8.70;;;2.40;;
66402;SDS011;53212;52.112;5.144;2023-02-24T14:25:23;7.60;;;1.80;;
66402;SDS011;53212;52.112;5.144;2023-02-24T14:27:52;7.70;;;2.10;;
66402;SDS011;53212;52.112;5.144;2023-02-24T14:30:20;7.40;;;2.20;;
66402;SDS011;53212;52.112;5.144;2023-02-24T14:32:49;13.80;;;2.70;;
66402;SDS011;53212;52.112;5.144;2023-02-24T14:35:24;11.80;;;3.10;;
66402;SDS011;53212;52.112;5.144;2023-02-24T14:37:59;12.70;;;2.30;;
66402;SDS011;53212;52.112;5.144;2023-02-24T14:40:25;11.20;;;3.20;;
66402;SDS011;53212;52.112;5.144;2023-02-24T14:42:52;12.50;;;3.40;;
66402;SDS011;53212;52.112;5.144;2023-02-24T14:45:22;18.20;;;3.50;;
66402;SDS011;53212;52.112;5.144;2023-02-24T14:50:19;14.80;;;3.50;;
66402;SDS011;53212;52.112;5.144;2023-02-24T14:53:07;15.30;;;3.90;;
66402;SDS011;53212;52.112;5.144;2023-02-24T14:55:40;14.70;;;3.30;;
66402;SDS011;53212;52.112;5.144;2023-02-24T14:58:13;9.20;;;2.30;;
66402;SDS011;53212;52.112;5.144;2023-02-24T15:00:55;9.60;;;2.40;;
66402;SDS011;53212;52.112;5.144;2023-02-24T15:03:38;10.00;;;2.60;;
66402;SDS011;53212;52.112;5.144;2023-02-24T15:06:23;11.30;;;3.20;;
66402;SDS011;53212;52.112;5.144;2023-02-24T15:09:04;9.00;;;2.40;;
66402;SDS011;53212;52.112;5.144;2023-02-24T15:11:37;7.20;;;2.40;;
66402;SDS011;53212;52.112;5.144;2023-02-24T15:14:04;9.70;;;2.90;;
66402;SDS011;53212;52.112;5.144;2023-02-24T15:16:42;10.10;;;1.80;;
66402;SDS011;53212;52.112;5.144;2023-02-24T15:22:02;7.90;;;1.90;;
66402;SDS011;53212;52.112;5.144;2023-02-24T15:24:31;4.80;;;1.40;;
66402;SDS011;53212;52.112;5.144;2023-02-24T15:27:01;4.90;;;1.40;;
66402;SDS011;53212;52.112;5.144;2023-02-24T15:29:44;6.20;;;1.20;;
66402;SDS011;53212;52.112;5.144;2023-02-24T15:32:22;4.20;;;1.30;;
66402;SDS011;53212;52.112;5.144;2023-02-24T15:34:49;5.10;;;1.60;;
66402;SDS011;53212;52.112;5.144;2023-02-24T15:37:25;3.50;;;1.20;;
66402;SDS011;53212;52.112;5.144;2023-02-24T15:40:10;3.90;;;1.30;;
66402;SDS011;53212;52.112;5.144;2023-02-24T15:43:09;5.90;;;1.30;;
66402;SDS011;53212;52.112;5.144;2023-02-24T15:45:37;5.60;;;1.60;;
66402;SDS011;53212;52.112;5.144;2023-02-24T15:48:21;5.90;;;1.50;;
66402;SDS011;53212;52.112;5.144;2023-02-24T15:50:49;4.30;;;1.70;;
66402;SDS011;53212;52.112;5.144;2023-02-24T15:53:14;7.10;;;1.70;;
66402;SDS011;53212;52.112;5.144;2023-02-24T15:55:40;6.30;;;1.70;;
66402;SDS011;53212;52.112;5.144;2023-02-24T15:58:17;5.40;;;1.60;;
66402;SDS011;53212;52.112;5.144;2023-02-24T16:00:46;8.20;;;1.60;;
66402;SDS011;53212;52.112;5.144;2023-02-24T16:03:17;11.00;;;2.00;;
66402;SDS011;53212;52.112;5.144;2023-02-24T16:05:42;3.90;;;1.60;;
66402;SDS011;53212;52.112;5.144;2023-02-24T16:08:14;4.50;;;1.30;;
66402;SDS011;53212;52.112;5.144;2023-02-24T16:10:42;3.60;;;1.10;;
66402;SDS011;53212;52.112;5.144;2023-02-24T16:13:15;7.30;;;1.60;;
66402;SDS011;53212;52.112;5.144;2023-02-24T16:15:44;5.00;;;1.70;;
66402;SDS011;53212;52.112;5.144;2023-02-24T16:18:13;5.50;;;1.50;;
66402;SDS011;53212;52.112;5.144;2023-02-24T16:20:44;4.90;;;1.40;;
66402;SDS011;53212;52.112;5.144;2023-02-24T16:23:13;4.20;;;1.40;;
66402;SDS011;53212;52.112;5.144;2023-02-24T16:25:43;4.20;;;1.40;;
66402;SDS011;53212;52.112;5.144;2023-02-24T16:28:17;6.50;;;1.60;;
66402;SDS011;53212;52.112;5.144;2023-02-24T16:30:44;6.40;;;1.50;;
66402;SDS011;53212;52.112;5.144;2023-02-24T16:33:14;7.00;;;1.50;;
66402;SDS011;53212;52.112;5.144;2023-02-24T16:35:41;8.30;;;2.00;;
66402;SDS011;53212;52.112;5.144;2023-02-24T16:38:12;9.00;;;1.60;;
66402;SDS011;53212;52.112;5.144;2023-02-24T16:40:40;7.00;;;2.00;;
66402;SDS011;53212;52.112;5.144;2023-02-24T16:43:09;10.60;;;2.10;;
66402;SDS011;53212;52.112;5.144;2023-02-24T16:45:36;7.00;;;2.10;;
66402;SDS011;53212;52.112;5.144;2023-02-24T16:48:05;7.30;;;1.70;;
66402;SDS011;53212;52.112;5.144;2023-02-24T16:50:38;12.40;;;2.90;;
66402;SDS011;53212;52.112;5.144;2023-02-24T16:53:06;7.10;;;2.20;;
66402;SDS011;53212;52.112;5.144;2023-02-24T16:55:32;8.70;;;2.40;;
66402;SDS011;53212;52.112;5.144;2023-02-24T16:57:58;8.10;;;2.30;;
66402;SDS011;53212;52.112;5.144;2023-02-24T17:00:23;9.90;;;2.00;;
66402;SDS011;53212;52.112;5.144;2023-02-24T17:02:50;8.10;;;2.30;;
66402;SDS011;53212;52.112;5.144;2023-02-24T17:05:19;9.30;;;2.40;;
66402;SDS011;53212;52.112;5.144;2023-02-24T17:07:47;11.40;;;2.60;;
66402;SDS011;53212;52.112;5.144;2023-02-24T17:10:15;17.00;;;6.40;;
66402;SDS011;53212;52.112;5.144;2023-02-24T17:12:41;10.80;;;2.40;;
66402;SDS011;53212;52.112;5.144;2023-02-24T17:15:11;9.80;;;2.60;;
66402;SDS011;53212;52.112;5.144;2023-02-24T17:17:39;11.70;;;2.60;;
66402;SDS011;53212;52.112;5.144;2023-02-24T17:20:05;10.20;;;2.90;;
66402;SDS011;53212;52.112;5.144;2023-02-24T17:22:31;9.10;;;2.40;;
66402;SDS011;53212;52.112;5.144;2023-02-24T17:24:57;19.20;;;3.00;;
66402;SDS011;53212;52.112;5.144;2023-02-24T17:27:22;18.40;;;2.90;;
66402;SDS011;53212;52.112;5.144;2023-02-24T17:29:48;8.30;;;2.50;;
66402;SDS011;53212;52.112;5.144;2023-02-24T17:32:13;11.30;;;2.90;;
66402;SDS011;53212;52.112;5.144;2023-02-24T17:34:39;15.30;;;2.90;;
66402;SDS011;53212;52.112;5.144;2023-02-24T17:37:04;12.10;;;2.70;;
66402;SDS011;53212;52.112;5.144;2023-02-24T17:39:30;11.40;;;3.30;;
66402;SDS011;53212;52.112;5.144;2023-02-24T17:41:55;12.70;;;2.70;;
66402;SDS011;53212;52.112;5.144;2023-02-24T17:44:20;15.00;;;3.40;;
66402;SDS011;53212;52.112;5.144;2023-02-24T17:46:46;15.30;;;3.00;;